createdAt,value
2023-03-27T00:00:22.832Z,995.83
2023-03-27T00:01:22.831Z,995.79
2023-03-27T00:02:22.932Z,995.81
2023-03-27T00:03:22.924Z,995.84
2023-03-27T00:04:22.791Z,995.90
2023-03-27T00:05:22.777Z,995.91
2023-03-27T00:06:22.789Z,995.95
2023-03-27T00:07:27.772Z,995.85
2023-03-27T00:08:22.774Z,995.99
2023-03-27T00:09:22.733Z,995.99
2023-03-27T00:10:22.720Z,996.09
2023-03-27T00:11:22.707Z,995.97
2023-03-27T00:12:22.699Z,995.97
2023-03-27T00:13:22.687Z,996.07
2023-03-27T00:14:22.715Z,996.03
2023-03-27T00:15:22.694Z,996.17
2023-03-27T00:16:22.694Z,996.15
2023-03-27T00:17:22.642Z,996.16
2023-03-27T00:18:27.647Z,996.13
2023-03-27T00:19:22.638Z,996.17
2023-03-27T00:20:22.647Z,996.16
2023-03-27T00:21:22.640Z,996.18
2023-03-27T00:22:22.606Z,996.19
2023-03-27T00:23:22.577Z,996.28
2023-03-27T00:24:22.577Z,996.32
2023-03-27T00:25:22.548Z,996.31
2023-03-27T00:26:22.553Z,996.39
2023-03-27T00:27:22.523Z,996.34
2023-03-27T00:28:22.517Z,996.42
2023-03-27T00:29:27.557Z,996.41
2023-03-27T00:30:22.519Z,996.45
2023-03-27T00:31:22.493Z,996.53
2023-03-27T00:32:22.483Z,996.41
2023-03-27T00:33:22.464Z,996.54
2023-03-27T00:34:22.448Z,996.53
2023-03-27T00:35:22.493Z,996.61
2023-03-27T00:36:22.443Z,996.64
2023-03-27T00:37:22.411Z,996.66
2023-03-27T00:38:22.448Z,996.73
2023-03-27T00:39:22.386Z,996.81
2023-03-27T00:40:27.422Z,996.79
2023-03-27T00:41:22.437Z,996.83
2023-03-27T00:42:22.354Z,996.85
2023-03-27T00:43:22.354Z,996.95
2023-03-27T00:44:22.359Z,996.89
2023-03-27T00:45:22.363Z,997.00
2023-03-27T00:46:22.344Z,996.98
2023-03-27T00:47:22.298Z,997.02
2023-03-27T00:48:22.299Z,996.96
2023-03-27T00:49:22.280Z,996.81
2023-03-27T00:50:22.323Z,996.99
2023-03-27T00:51:27.274Z,996.94
2023-03-27T00:52:22.244Z,996.88
2023-03-27T00:53:22.232Z,996.87
2023-03-27T00:54:22.257Z,996.92
2023-03-27T00:55:22.219Z,996.92
2023-03-27T00:56:22.230Z,996.89
2023-03-27T00:57:22.190Z,996.98
2023-03-27T00:58:22.174Z,997.01
2023-03-27T00:59:22.168Z,996.96
2023-03-27T01:00:22.197Z,997.00
2023-03-27T01:01:22.203Z,997.06
2023-03-27T01:02:27.264Z,997.01
2023-03-27T01:03:22.292Z,997.02
2023-03-27T01:04:22.108Z,996.98
2023-03-27T01:05:22.109Z,997.08
2023-03-27T01:06:22.089Z,997.09
2023-03-27T01:07:22.068Z,997.04
2023-03-27T01:08:22.062Z,997.17
2023-03-27T01:09:22.105Z,997.15
2023-03-27T01:10:22.076Z,997.08
2023-03-27T01:11:22.025Z,997.18
2023-03-27T01:12:22.013Z,997.24
2023-03-27T01:13:27.038Z,997.23
2023-03-27T01:14:22.010Z,997.32
2023-03-27T01:15:22.049Z,997.34
2023-03-27T01:16:21.985Z,997.37
2023-03-27T01:17:22.014Z,997.42
2023-03-27T01:18:21.949Z,997.47
2023-03-27T01:19:21.931Z,997.55
2023-03-27T01:20:21.930Z,997.45
2023-03-27T01:21:21.908Z,997.43
2023-03-27T01:22:21.944Z,997.47
2023-03-27T01:23:35.961Z,997.53
2023-03-27T01:24:26.909Z,997.56
2023-03-27T01:25:21.871Z,997.54
2023-03-27T01:26:35.426Z,997.53
2023-03-27T01:27:22.840Z,997.58
2023-03-27T01:28:21.888Z,997.62
2023-03-27T01:29:21.822Z,997.63
2023-03-27T01:30:21.824Z,997.66
2023-03-27T01:31:21.821Z,997.71
2023-03-27T01:32:21.952Z,997.70
2023-03-27T01:33:21.777Z,997.71
2023-03-27T01:34:21.803Z,997.71
2023-03-27T01:35:26.821Z,997.78
2023-03-27T01:36:21.740Z,997.76
2023-03-27T01:37:21.730Z,997.81
2023-03-27T01:38:21.714Z,997.83
2023-03-27T01:39:21.711Z,997.83
2023-03-27T01:40:21.734Z,997.85
2023-03-27T01:41:21.729Z,997.89
2023-03-27T01:42:21.704Z,997.86
2023-03-27T01:43:21.661Z,997.98
2023-03-27T01:44:21.650Z,997.94
2023-03-27T01:45:21.642Z,997.85
2023-03-27T01:46:26.708Z,997.95
2023-03-27T01:47:21.709Z,997.96
2023-03-27T01:48:21.604Z,998.03
2023-03-27T01:49:21.593Z,998.08
2023-03-27T01:50:21.585Z,998.05
2023-03-27T01:51:21.582Z,998.10
2023-03-27T01:52:21.583Z,998.17
2023-03-27T01:53:21.549Z,998.18
2023-03-27T01:54:21.545Z,998.30
2023-03-27T01:55:21.536Z,998.27
2023-03-27T01:56:21.528Z,998.31
2023-03-27T01:57:26.548Z,998.29
2023-03-27T01:58:21.542Z,998.29
2023-03-27T01:59:21.486Z,998.32
2023-03-27T02:00:21.474Z,998.34
2023-03-27T02:01:21.546Z,998.38
2023-03-27T02:02:21.511Z,998.39
2023-03-27T02:03:21.433Z,998.40
2023-03-27T02:04:21.449Z,998.43
2023-03-27T02:05:21.452Z,998.43
2023-03-27T02:06:21.428Z,998.42
2023-03-27T02:07:21.406Z,998.48
2023-03-27T02:08:26.403Z,998.51
2023-03-27T02:09:21.365Z,998.45
2023-03-27T02:10:21.356Z,998.52
2023-03-27T02:11:21.375Z,998.47
2023-03-27T02:12:21.339Z,998.59
2023-03-27T02:13:21.353Z,998.60
2023-03-27T02:14:21.326Z,998.59
2023-03-27T02:15:23.260Z,998.78
2023-03-27T02:16:21.337Z,998.57
2023-03-27T02:17:21.331Z,998.72
2023-03-27T02:18:21.268Z,998.74
2023-03-27T02:19:26.291Z,998.75
2023-03-27T02:20:21.250Z,998.80
2023-03-27T02:21:21.245Z,998.77
2023-03-27T02:22:37.648Z,998.79
2023-03-27T02:23:21.240Z,998.81
2023-03-27T02:24:21.197Z,998.95
2023-03-27T02:25:21.191Z,998.98
2023-03-27T02:26:21.183Z,998.98
2023-03-27T02:27:21.170Z,998.99
2023-03-27T02:28:21.162Z,999.04
2023-03-27T02:29:21.179Z,999.04
2023-03-27T02:30:26.159Z,999.10
2023-03-27T02:31:34.023Z,999.11
2023-03-27T02:32:21.164Z,999.22
2023-03-27T02:33:21.165Z,999.13
2023-03-27T02:34:21.089Z,999.20
2023-03-27T02:35:21.157Z,999.18
2023-03-27T02:36:21.097Z,999.22
2023-03-27T02:37:21.057Z,999.25
2023-03-27T02:38:21.040Z,999.35
2023-03-27T02:39:21.031Z,999.25
2023-03-27T02:40:21.018Z,999.29
2023-03-27T02:41:26.189Z,999.40
2023-03-27T02:42:20.993Z,999.46
2023-03-27T02:43:20.990Z,999.46
2023-03-27T02:44:20.987Z,999.63
2023-03-27T02:45:20.995Z,999.54
2023-03-27T02:46:21.017Z,999.52
2023-03-27T02:47:20.987Z,999.59
2023-03-27T02:48:20.934Z,999.58
2023-03-27T02:49:20.921Z,999.60
2023-03-27T02:50:20.911Z,999.58
2023-03-27T02:51:20.905Z,999.64
2023-03-27T02:52:25.927Z,999.69
2023-03-27T02:53:20.888Z,999.63
2023-03-27T02:54:20.886Z,999.71
2023-03-27T02:55:20.855Z,999.71
2023-03-27T02:56:20.849Z,999.76
2023-03-27T02:57:21.822Z,999.76
2023-03-27T02:58:20.830Z,999.75
2023-03-27T02:59:20.813Z,999.82
2023-03-27T03:00:20.904Z,999.86
2023-03-27T03:01:20.856Z,999.94
2023-03-27T03:02:20.837Z,999.98
2023-03-27T03:03:25.824Z,999.91
2023-03-27T03:04:20.767Z,999.94
2023-03-27T03:05:20.784Z,999.98
2023-03-27T03:06:20.778Z,999.88
2023-03-27T03:07:20.744Z,1000.02
2023-03-27T03:08:20.714Z,999.98
2023-03-27T03:09:20.700Z,999.99
2023-03-27T03:10:20.698Z,999.91
2023-03-27T03:11:20.676Z,999.90
2023-03-27T03:12:20.706Z,999.97
2023-03-27T03:13:20.655Z,1000.00
2023-03-27T03:14:25.673Z,1000.08
2023-03-27T03:15:20.633Z,1000.10
2023-03-27T03:16:20.630Z,1000.09
2023-03-27T03:17:20.638Z,1000.16
2023-03-27T03:18:20.657Z,1000.20
2023-03-27T03:19:20.586Z,1000.21
2023-03-27T03:20:20.571Z,1000.22
2023-03-27T03:21:20.560Z,1000.27
2023-03-27T03:22:20.548Z,1000.26
2023-03-27T03:23:20.549Z,1000.22
2023-03-27T03:24:20.551Z,1000.37
2023-03-27T03:25:25.539Z,1000.30
2023-03-27T03:26:20.505Z,1000.43
2023-03-27T03:27:20.503Z,1000.50
2023-03-27T03:28:20.491Z,1000.49
2023-03-27T03:29:20.473Z,1000.53
2023-03-27T03:30:20.508Z,1000.53
2023-03-27T03:31:20.521Z,1000.55
2023-03-27T03:32:20.433Z,1000.52
2023-03-27T03:33:20.465Z,1000.59
2023-03-27T03:34:20.415Z,1000.64
2023-03-27T03:35:20.406Z,1000.66
2023-03-27T03:36:25.442Z,1000.66
2023-03-27T03:37:20.395Z,1000.65
2023-03-27T03:38:20.374Z,1000.72
2023-03-27T03:39:20.387Z,1000.73
2023-03-27T03:40:20.368Z,1000.82
2023-03-27T03:41:20.347Z,1000.95
2023-03-27T03:42:22.618Z,1001.00
2023-03-27T03:43:20.323Z,1000.99
2023-03-27T03:44:20.297Z,1001.03
2023-03-27T03:45:20.297Z,1001.05
2023-03-27T03:46:20.312Z,1001.06
2023-03-27T03:47:25.336Z,1001.13
2023-03-27T03:48:20.301Z,1001.14
2023-03-27T03:49:20.286Z,1001.20
2023-03-27T03:50:20.235Z,1001.20
2023-03-27T03:51:20.222Z,1001.19
2023-03-27T03:52:20.253Z,1001.23
2023-03-27T03:53:20.207Z,1001.26
2023-03-27T03:54:20.207Z,1001.26
2023-03-27T03:55:20.182Z,1001.26
2023-03-27T03:56:20.163Z,1001.28
2023-03-27T03:57:20.154Z,1001.27
2023-03-27T03:58:34.398Z,1001.26
2023-03-27T03:59:20.133Z,1001.40
2023-03-27T04:00:20.118Z,1001.38
2023-03-27T04:01:20.148Z,1001.42
2023-03-27T04:02:20.164Z,1001.51
2023-03-27T04:03:20.211Z,1001.45
2023-03-27T04:04:20.076Z,1001.53
2023-03-27T04:05:20.189Z,1001.56
2023-03-27T04:06:20.621Z,1001.44
2023-03-27T04:07:20.107Z,1001.54
2023-03-27T04:08:20.034Z,1001.54
2023-03-27T04:09:25.051Z,1001.51
2023-03-27T04:10:20.005Z,1001.59
2023-03-27T04:11:19.996Z,1001.57
2023-03-27T04:12:19.982Z,1001.64
2023-03-27T04:13:20.031Z,1001.63
2023-03-27T04:14:19.958Z,1001.71
2023-03-27T04:15:19.948Z,1001.68
2023-03-27T04:16:19.992Z,1001.69
2023-03-27T04:17:19.945Z,1001.83
2023-03-27T04:18:20.065Z,1001.86
2023-03-27T04:19:20.006Z,1001.80
2023-03-27T04:20:24.924Z,1001.88
2023-03-27T04:21:19.882Z,1001.94
2023-03-27T04:22:19.864Z,1001.99
2023-03-27T04:23:19.881Z,1002.01
2023-03-27T04:24:19.844Z,1001.98
2023-03-27T04:25:19.913Z,1002.01
2023-03-27T04:26:19.885Z,1001.89
2023-03-27T04:27:19.814Z,1002.06
2023-03-27T04:28:19.829Z,1002.01
2023-03-27T04:29:19.788Z,1002.00
2023-03-27T04:30:19.780Z,1001.97
2023-03-27T04:31:24.899Z,1002.06
2023-03-27T04:32:19.755Z,1002.09
2023-03-27T04:33:19.758Z,1002.13
2023-03-27T04:34:19.736Z,1002.10
2023-03-27T04:35:19.732Z,1002.20
2023-03-27T04:36:19.812Z,1002.18
2023-03-27T04:37:23.158Z,1002.26
2023-03-27T04:38:19.719Z,1002.25
2023-03-27T04:39:19.692Z,1002.28
2023-03-27T04:40:19.687Z,1002.40
2023-03-27T04:41:19.698Z,1002.31
2023-03-27T04:42:24.675Z,1002.36
2023-03-27T04:43:19.732Z,1002.44
2023-03-27T04:44:19.624Z,1002.38
2023-03-27T04:45:19.625Z,1002.44
2023-03-27T04:46:19.636Z,1002.49
2023-03-27T04:47:19.594Z,1002.50
2023-03-27T04:48:19.582Z,1002.54
2023-03-27T04:49:19.645Z,1002.60
2023-03-27T04:50:19.569Z,1002.54
2023-03-27T04:51:19.563Z,1002.55
2023-03-27T04:52:19.565Z,1002.58
2023-03-27T04:53:24.554Z,1002.53
2023-03-27T04:54:19.528Z,1002.60
2023-03-27T04:55:19.590Z,1002.66
2023-03-27T04:56:19.500Z,1002.63
2023-03-27T04:57:19.503Z,1002.66
2023-03-27T04:58:19.527Z,1002.62
2023-03-27T04:59:19.474Z,1002.69
2023-03-27T05:00:19.611Z,1002.69
2023-03-27T05:01:19.483Z,1002.80
2023-03-27T05:02:19.427Z,1002.74
2023-03-27T05:03:19.506Z,1002.81
2023-03-27T05:04:24.447Z,1002.84
2023-03-27T05:05:19.398Z,1002.84
2023-03-27T05:06:19.380Z,1002.86
2023-03-27T05:07:19.376Z,1002.89
2023-03-27T05:08:19.389Z,1002.85
2023-03-27T05:09:19.393Z,1002.88
2023-03-27T05:10:21.828Z,1002.93
2023-03-27T05:11:19.325Z,1002.96
2023-03-27T05:12:19.346Z,1002.90
2023-03-27T05:13:19.308Z,1002.98
2023-03-27T05:14:19.329Z,1003.05
2023-03-27T05:15:24.312Z,1003.12
2023-03-27T05:16:19.397Z,1003.06
2023-03-27T05:17:19.276Z,1003.14
2023-03-27T05:18:19.246Z,1003.17
2023-03-27T05:19:19.254Z,1003.16
2023-03-27T05:20:19.233Z,1003.14
2023-03-27T05:21:19.214Z,1003.21
2023-03-27T05:22:19.221Z,1003.15
2023-03-27T05:23:19.190Z,1003.28
2023-03-27T05:24:19.212Z,1003.28
2023-03-27T05:25:19.184Z,1003.33
2023-03-27T05:26:24.179Z,1003.32
2023-03-27T05:27:19.156Z,1003.42
2023-03-27T05:28:19.178Z,1003.50
2023-03-27T05:29:19.148Z,1003.55
2023-03-27T05:30:19.113Z,1003.54
2023-03-27T05:31:19.143Z,1003.53
2023-03-27T05:32:19.092Z,1003.60
2023-03-27T05:33:19.087Z,1003.59
2023-03-27T05:34:19.143Z,1003.67
2023-03-27T05:35:19.098Z,1003.66
2023-03-27T05:36:19.065Z,1003.71
2023-03-27T05:37:24.928Z,1003.77
2023-03-27T05:38:19.025Z,1003.81
2023-03-27T05:39:19.022Z,1003.74
2023-03-27T05:40:19.027Z,1003.83
2023-03-27T05:41:18.995Z,1003.78
2023-03-27T05:42:18.984Z,1003.79
2023-03-27T05:43:18.968Z,1003.80
2023-03-27T05:44:18.972Z,1003.88
2023-03-27T05:45:18.948Z,1003.89
2023-03-27T05:46:21.245Z,1003.87
2023-03-27T05:47:18.933Z,1003.93
2023-03-27T05:48:23.936Z,1003.89
2023-03-27T05:49:18.926Z,1004.02
2023-03-27T05:50:18.885Z,1004.01
2023-03-27T05:51:18.876Z,1004.02
2023-03-27T05:52:18.898Z,1004.04
2023-03-27T05:53:18.864Z,1004.05
2023-03-27T05:54:18.854Z,1004.10
2023-03-27T05:55:18.831Z,1004.07
2023-03-27T05:56:18.850Z,1004.06
2023-03-27T05:57:18.887Z,1004.10
2023-03-27T05:58:18.857Z,1004.13
2023-03-27T05:59:23.823Z,1004.18
2023-03-27T06:00:18.781Z,1004.14
2023-03-27T06:01:18.765Z,1004.18
2023-03-27T06:02:21.271Z,1004.19
2023-03-27T06:03:18.912Z,1004.24
2023-03-27T06:04:18.834Z,1004.27
2023-03-27T06:05:18.722Z,1004.34
2023-03-27T06:06:18.709Z,1004.32
2023-03-27T06:07:18.710Z,1004.35
2023-03-27T06:08:18.690Z,1004.33
2023-03-27T06:09:18.690Z,1004.37
2023-03-27T06:10:23.738Z,1004.38
2023-03-27T06:11:18.655Z,1004.48
2023-03-27T06:12:18.670Z,1004.47
2023-03-27T06:13:18.648Z,1004.50
2023-03-27T06:14:18.629Z,1004.52
2023-03-27T06:15:18.612Z,1004.56
2023-03-27T06:16:18.661Z,1004.59
2023-03-27T06:17:18.590Z,1004.62
2023-03-27T06:18:18.577Z,1004.71
2023-03-27T06:19:18.573Z,1004.74
2023-03-27T06:20:18.552Z,1004.76
2023-03-27T06:21:23.565Z,1004.87
2023-03-27T06:22:18.582Z,1004.85
2023-03-27T06:23:18.550Z,1004.86
2023-03-27T06:24:18.526Z,1004.92
2023-03-27T06:25:18.497Z,1004.89
2023-03-27T06:26:18.487Z,1004.92
2023-03-27T06:27:18.482Z,1004.99
2023-03-27T06:28:18.485Z,1004.89
2023-03-27T06:29:18.519Z,1004.88
2023-03-27T06:30:18.462Z,1004.96
2023-03-27T06:31:18.454Z,1004.97
2023-03-27T06:32:23.912Z,1005.03
2023-03-27T06:33:18.409Z,1005.04
2023-03-27T06:34:18.413Z,1005.09
2023-03-27T06:35:18.469Z,1005.11
2023-03-27T06:36:18.423Z,1005.14
2023-03-27T06:37:18.363Z,1005.16
2023-03-27T06:38:18.352Z,1005.18
2023-03-27T06:39:18.356Z,1005.17
2023-03-27T06:40:18.334Z,1005.24
2023-03-27T06:41:18.348Z,1005.13
2023-03-27T06:42:18.365Z,1005.23
2023-03-27T06:43:23.334Z,1005.25
2023-03-27T06:44:18.300Z,1005.23
2023-03-27T06:45:18.276Z,1005.28
2023-03-27T06:46:18.283Z,1005.37
2023-03-27T06:47:18.344Z,1005.31
2023-03-27T06:48:21.499Z,1005.35
2023-03-27T06:49:18.239Z,1005.34
2023-03-27T06:50:18.229Z,1005.36
2023-03-27T06:51:18.204Z,1005.33
2023-03-27T06:52:18.197Z,1005.38
2023-03-27T06:54:23.206Z,1005.45
2023-03-27T06:55:18.167Z,1005.48
2023-03-27T06:56:18.161Z,1005.49
2023-03-27T06:57:18.212Z,1005.59
2023-03-27T06:58:18.128Z,1005.53
2023-03-27T06:59:18.178Z,1005.55
2023-03-27T07:00:18.145Z,1005.61
2023-03-27T07:01:18.091Z,1005.56
2023-03-27T07:02:18.080Z,1005.62
2023-03-27T07:03:18.306Z,1005.64
2023-03-27T07:04:18.066Z,1005.62
2023-03-27T07:05:23.158Z,1005.64
2023-03-27T07:06:18.034Z,1005.72
2023-03-27T07:07:18.022Z,1005.69
2023-03-27T07:08:24.349Z,1005.73
2023-03-27T07:09:19.032Z,1005.82
2023-03-27T07:10:17.990Z,1005.79
2023-03-27T07:11:18.520Z,1005.79
2023-03-27T07:12:17.982Z,1005.85
2023-03-27T07:13:17.955Z,1005.82
2023-03-27T07:14:17.939Z,1005.87
2023-03-27T07:15:17.975Z,1005.89
2023-03-27T07:16:22.987Z,1005.91
2023-03-27T07:17:17.927Z,1005.95
2023-03-27T07:18:17.990Z,1006.06
2023-03-27T07:19:17.881Z,1006.03
2023-03-27T07:20:17.901Z,1006.07
2023-03-27T07:21:17.860Z,1006.00
2023-03-27T07:22:17.908Z,1006.00
2023-03-27T07:23:17.854Z,1006.02
2023-03-27T07:24:17.856Z,1006.08
2023-03-27T07:25:17.823Z,1006.13
2023-03-27T07:26:17.806Z,1006.28
2023-03-27T07:27:22.836Z,1006.25
2023-03-27T07:28:17.781Z,1006.30
2023-03-27T07:29:17.798Z,1006.27
2023-03-27T07:30:17.782Z,1006.33
2023-03-27T07:31:29.898Z,1006.34
2023-03-27T07:32:29.797Z,1006.34
2023-03-27T07:33:17.767Z,1006.35
2023-03-27T07:34:17.913Z,1006.40
2023-03-27T07:35:17.821Z,1006.43
2023-03-27T07:36:17.706Z,1006.44
2023-03-27T07:37:17.676Z,1006.42
2023-03-27T07:38:22.704Z,1006.39
2023-03-27T07:39:17.671Z,1006.39
2023-03-27T07:40:19.927Z,1006.41
2023-03-27T07:41:17.723Z,1006.47
2023-03-27T07:42:17.633Z,1006.47
2023-03-27T07:43:17.661Z,1006.53
2023-03-27T07:44:17.607Z,1006.52
2023-03-27T07:45:17.709Z,1006.58
2023-03-27T07:46:17.650Z,1006.69
2023-03-27T07:47:17.611Z,1006.70
2023-03-27T07:48:17.566Z,1006.60
2023-03-27T07:49:39.685Z,1006.70
2023-03-27T07:50:17.562Z,1006.72
2023-03-27T07:51:17.526Z,1006.73
2023-03-27T07:52:17.521Z,1006.76
2023-03-27T07:53:33.300Z,1006.75
2023-03-27T07:54:17.498Z,1006.85
2023-03-27T07:55:17.500Z,1006.77
2023-03-27T07:56:17.467Z,1006.78
2023-03-27T07:57:17.510Z,1006.74
2023-03-27T07:58:17.543Z,1006.87
2023-03-27T07:59:17.466Z,1006.82
2023-03-27T08:00:22.607Z,1006.88
2023-03-27T08:01:17.440Z,1006.92
2023-03-27T08:02:17.408Z,1006.90
2023-03-27T08:03:17.648Z,1006.91
2023-03-27T08:04:17.490Z,1006.95
2023-03-27T08:05:17.397Z,1007.02
2023-03-27T08:06:17.448Z,1006.84
2023-03-27T08:07:17.353Z,1006.87
2023-03-27T08:08:17.437Z,1006.93
2023-03-27T08:09:17.325Z,1007.01
2023-03-27T08:10:17.323Z,1007.01
2023-03-27T08:11:30.386Z,1007.00
2023-03-27T08:12:17.290Z,1007.11
2023-03-27T08:13:17.312Z,1006.97
2023-03-27T08:14:17.272Z,1007.10
2023-03-27T08:15:17.262Z,1007.05
2023-03-27T08:16:17.272Z,1007.09
2023-03-27T08:17:18.208Z,1007.17
2023-03-27T08:18:17.243Z,1007.16
2023-03-27T08:19:17.230Z,1007.14
2023-03-27T08:20:17.210Z,1007.11
2023-03-27T08:21:17.214Z,1007.09
2023-03-27T08:22:22.196Z,1007.06
2023-03-27T08:23:17.161Z,1007.07
2023-03-27T08:24:17.156Z,1007.03
2023-03-27T08:25:17.179Z,1007.15
2023-03-27T08:26:17.130Z,1007.12
2023-03-27T08:27:17.120Z,1007.11
2023-03-27T08:28:17.100Z,1007.05
2023-03-27T08:29:17.093Z,1007.06
2023-03-27T08:30:17.420Z,1007.34
2023-03-27T08:31:17.193Z,1007.26
2023-03-27T08:32:17.069Z,1007.21
2023-03-27T08:33:22.067Z,1007.17
2023-03-27T08:34:17.059Z,1007.27
2023-03-27T08:35:17.132Z,1007.24
2023-03-27T08:36:17.018Z,1007.29
2023-03-27T08:37:17.028Z,1007.30
2023-03-27T08:38:25.982Z,1007.27
2023-03-27T08:39:16.985Z,1007.35
2023-03-27T08:40:16.987Z,1007.29
2023-03-27T08:41:16.953Z,1007.38
2023-03-27T08:42:18.925Z,1007.20
2023-03-27T08:43:16.965Z,1007.38
2023-03-27T08:44:21.957Z,1007.38
2023-03-27T08:45:16.918Z,1007.30
2023-03-27T08:46:16.928Z,1007.38
2023-03-27T08:47:16.886Z,1007.34
2023-03-27T08:48:16.876Z,1007.41
2023-03-27T08:49:16.900Z,1007.42
2023-03-27T08:50:16.864Z,1007.46
2023-03-27T08:51:16.875Z,1007.35
2023-03-27T08:52:16.840Z,1007.38
2023-03-27T08:53:16.827Z,1007.40
2023-03-27T08:54:16.820Z,1007.42
2023-03-27T08:55:21.870Z,1007.32
2023-03-27T08:56:16.809Z,1007.43
2023-03-27T08:57:16.853Z,1007.44
2023-03-27T08:58:16.773Z,1007.62
2023-03-27T08:59:17.487Z,1007.57
2023-03-27T09:00:16.750Z,1007.65
2023-03-27T09:01:16.794Z,1007.58
2023-03-27T09:02:16.768Z,1007.64
2023-03-27T09:03:16.823Z,1007.55
2023-03-27T09:04:16.703Z,1007.59
2023-03-27T09:05:16.741Z,1007.69
2023-03-27T09:06:21.777Z,1007.52
2023-03-27T09:07:16.717Z,1007.61
2023-03-27T09:08:16.648Z,1007.54
2023-03-27T09:09:16.652Z,1007.48
2023-03-27T09:10:16.646Z,1007.64
2023-03-27T09:11:16.628Z,1007.66
2023-03-27T09:12:16.607Z,1007.68
2023-03-27T09:13:16.646Z,1007.58
2023-03-27T09:14:16.593Z,1007.61
2023-03-27T09:15:16.585Z,1007.54
2023-03-27T09:16:16.599Z,1007.56
2023-03-27T09:17:21.569Z,1007.58
2023-03-27T09:18:16.535Z,1007.63
2023-03-27T09:19:16.548Z,1007.62
2023-03-27T09:20:16.515Z,1007.61
2023-03-27T09:21:16.510Z,1007.66
2023-03-27T09:22:16.520Z,1007.67
2023-03-27T09:23:16.872Z,1007.61
2023-03-27T09:24:16.471Z,1007.65
2023-03-27T09:25:16.490Z,1007.64
2023-03-27T09:26:16.454Z,1007.65
2023-03-27T09:27:16.469Z,1007.61
2023-03-27T09:28:21.453Z,1007.61
2023-03-27T09:29:19.978Z,1007.64
2023-03-27T09:30:16.425Z,1007.57
2023-03-27T09:31:16.477Z,1007.60
2023-03-27T09:32:16.382Z,1007.62
2023-03-27T09:33:16.376Z,1007.70
2023-03-27T09:34:16.360Z,1007.70
2023-03-27T09:35:16.444Z,1007.64
2023-03-27T09:36:16.342Z,1007.66
2023-03-27T09:37:17.472Z,1007.65
2023-03-27T09:38:16.329Z,1007.67
2023-03-27T09:39:21.323Z,1007.63
2023-03-27T09:40:16.289Z,1007.64
2023-03-27T09:41:16.281Z,1007.68
2023-03-27T09:42:16.268Z,1007.71
2023-03-27T09:43:16.283Z,1007.67
2023-03-27T09:44:16.252Z,1007.72
2023-03-27T09:45:16.252Z,1007.66
2023-03-27T09:46:16.270Z,1007.65
2023-03-27T09:47:16.203Z,1007.68
2023-03-27T09:48:16.207Z,1007.77
2023-03-27T09:49:16.278Z,1007.72
2023-03-27T09:50:21.220Z,1007.68
2023-03-27T09:51:16.169Z,1007.76
2023-03-27T09:52:16.151Z,1007.79
2023-03-27T09:53:16.144Z,1007.75
2023-03-27T09:54:16.147Z,1007.76
2023-03-27T09:55:16.163Z,1007.61
2023-03-27T09:56:16.114Z,1007.70
2023-03-27T09:57:16.150Z,1007.71
2023-03-27T09:58:16.096Z,1007.66
2023-03-27T09:59:16.072Z,1007.71
2023-03-27T10:00:16.097Z,1007.62
2023-03-27T10:01:21.156Z,1007.74
2023-03-27T10:02:16.038Z,1007.72
2023-03-27T10:03:16.533Z,1007.75
2023-03-27T10:04:16.084Z,1007.75
2023-03-27T10:05:16.004Z,1007.77
2023-03-27T10:06:16.000Z,1007.85
2023-03-27T10:07:15.990Z,1007.88
2023-03-27T10:08:15.970Z,1007.84
2023-03-27T10:09:16.007Z,1007.85
2023-03-27T10:10:16.037Z,1007.87
2023-03-27T10:11:15.957Z,1007.87
2023-03-27T10:12:20.966Z,1007.92
2023-03-27T10:13:15.951Z,1007.92
2023-03-27T10:14:15.982Z,1007.90
2023-03-27T10:15:15.919Z,1007.88
2023-03-27T10:16:15.932Z,1007.82
2023-03-27T10:17:15.880Z,1007.88
2023-03-27T10:18:15.857Z,1007.80
2023-03-27T10:19:15.880Z,1007.88
2023-03-27T10:20:15.979Z,1007.89
2023-03-27T10:21:15.867Z,1007.77
2023-03-27T10:22:15.813Z,1007.78
2023-03-27T10:23:20.855Z,1007.73
2023-03-27T10:24:15.797Z,1007.76
2023-03-27T10:25:15.784Z,1007.79
2023-03-27T10:26:15.811Z,1007.79
2023-03-27T10:27:15.792Z,1007.79
2023-03-27T10:28:15.788Z,1007.65
2023-03-27T10:29:15.732Z,1007.70
2023-03-27T10:30:15.734Z,1007.75
2023-03-27T10:31:15.735Z,1007.75
2023-03-27T10:32:15.733Z,1007.81
2023-03-27T10:33:15.757Z,1007.79
2023-03-27T10:34:20.723Z,1007.78
2023-03-27T10:35:15.672Z,1007.82
2023-03-27T10:36:15.668Z,1007.78
2023-03-27T10:37:15.659Z,1007.75
2023-03-27T10:38:15.641Z,1007.79
2023-03-27T10:39:15.619Z,1007.80
2023-03-27T10:40:15.616Z,1007.84
2023-03-27T10:41:15.597Z,1007.74
2023-03-27T10:42:15.621Z,1007.71
2023-03-27T10:43:15.583Z,1007.93
2023-03-27T10:44:15.563Z,1007.98
2023-03-27T10:45:20.588Z,1008.00
2023-03-27T10:46:15.689Z,1007.74
2023-03-27T10:47:15.540Z,1007.92
2023-03-27T10:48:15.517Z,1008.05
2023-03-27T10:49:17.425Z,1008.06
2023-03-27T10:50:15.569Z,1007.73
2023-03-27T10:51:15.481Z,1007.77
2023-03-27T10:52:15.510Z,1007.73
2023-03-27T10:53:15.545Z,1007.78
2023-03-27T10:54:15.500Z,1007.78
2023-03-27T10:55:15.437Z,1007.74
2023-03-27T10:56:20.454Z,1007.75
2023-03-27T10:57:15.506Z,1007.80
2023-03-27T10:58:15.467Z,1007.79
2023-03-27T10:59:15.440Z,1007.80
2023-03-27T11:00:15.406Z,1007.83
2023-03-27T11:01:15.410Z,1007.86
2023-03-27T11:02:15.383Z,1007.92
2023-03-27T11:03:15.388Z,1007.89
2023-03-27T11:04:15.392Z,1007.84
2023-03-27T11:05:15.412Z,1007.93
2023-03-27T11:06:15.369Z,1008.03
2023-03-27T11:07:20.366Z,1007.89
2023-03-27T11:08:15.293Z,1007.99
2023-03-27T11:09:15.285Z,1007.99
2023-03-27T11:10:15.267Z,1007.89
2023-03-27T11:11:15.348Z,1007.94
2023-03-27T11:12:15.263Z,1007.89
2023-03-27T11:13:15.238Z,1007.99
2023-03-27T11:14:15.278Z,1007.96
2023-03-27T11:15:15.207Z,1007.97
2023-03-27T11:16:15.200Z,1007.99
2023-03-27T11:17:15.216Z,1008.08
2023-03-27T11:18:20.191Z,1008.09
2023-03-27T11:19:15.272Z,1008.20
2023-03-27T11:20:15.150Z,1008.30
2023-03-27T11:21:15.138Z,1008.24
2023-03-27T11:22:15.138Z,1008.23
2023-03-27T11:23:15.172Z,1008.28
2023-03-27T11:24:15.101Z,1008.36
2023-03-27T11:25:15.107Z,1008.32
2023-03-27T11:26:15.093Z,1008.34
2023-03-27T11:27:15.071Z,1008.37
2023-03-27T11:28:15.090Z,1008.42
2023-03-27T11:29:20.122Z,1008.48
2023-03-27T11:30:15.078Z,1008.52
2023-03-27T11:31:15.120Z,1008.48
2023-03-27T11:32:15.039Z,1008.47
2023-03-27T11:33:15.018Z,1008.54
2023-03-27T11:34:14.994Z,1008.54
2023-03-27T11:35:15.005Z,1008.53
2023-03-27T11:36:15.001Z,1008.54
2023-03-27T11:37:14.973Z,1008.50
2023-03-27T11:38:14.965Z,1008.52
2023-03-27T11:39:14.938Z,1008.54
2023-03-27T11:40:19.943Z,1008.52
2023-03-27T11:41:15.604Z,1008.47
2023-03-27T11:42:14.896Z,1008.49
2023-03-27T11:43:14.900Z,1008.56
2023-03-27T11:44:14.905Z,1008.52
2023-03-27T11:45:14.883Z,1008.43
2023-03-27T11:46:14.876Z,1008.48
2023-03-27T11:47:14.843Z,1008.43
2023-03-27T11:48:14.954Z,1008.48
2023-03-27T11:49:14.822Z,1008.56
2023-03-27T11:50:14.830Z,1008.55
2023-03-27T11:51:19.823Z,1008.55
2023-03-27T11:52:14.794Z,1008.51
2023-03-27T11:53:14.800Z,1008.59
2023-03-27T11:54:14.802Z,1008.52
2023-03-27T11:55:14.767Z,1008.53
2023-03-27T11:56:14.740Z,1008.45
2023-03-27T11:57:14.766Z,1008.50
2023-03-27T11:58:14.734Z,1008.57
2023-03-27T11:59:14.712Z,1008.64
2023-03-27T12:00:14.750Z,1008.57
2023-03-27T12:01:17.214Z,1008.59
2023-03-27T12:02:19.749Z,1008.64
2023-03-27T12:03:14.781Z,1008.64
2023-03-27T12:04:14.711Z,1008.63
2023-03-27T12:05:14.654Z,1008.76
2023-03-27T12:06:14.709Z,1008.80
2023-03-27T12:07:15.522Z,1008.83
2023-03-27T12:08:14.616Z,1008.75
2023-03-27T12:09:14.595Z,1008.74
2023-03-27T12:10:14.587Z,1008.75
2023-03-27T12:11:14.577Z,1008.80
2023-03-27T12:12:14.580Z,1008.83